createdAt,value
2018-09-22T00:00:17.881Z,54.80
2018-09-22T00:02:45.581Z,54.10
2018-09-22T00:07:40.522Z,55.10
2018-09-22T00:12:35.521Z,59.50
2018-09-22T00:15:03.094Z,56.10
2018-09-22T00:17:30.649Z,60.40
2018-09-22T00:19:58.297Z,53.90
2018-09-22T00:22:25.805Z,61.20
2018-09-22T00:24:53.328Z,53.90
2018-09-22T00:27:20.911Z,60.30
2018-09-22T00:29:48.362Z,64.00
2018-09-22T00:34:43.255Z,61.30
2018-09-22T00:37:10.838Z,55.70
2018-09-22T00:39:38.419Z,53.40
2018-09-22T00:42:06.258Z,59.50
2018-09-22T00:44:33.805Z,55.40
2018-09-22T00:47:01.393Z,54.60
2018-09-22T00:49:28.861Z,61.10
2018-09-22T00:51:56.335Z,53.70
2018-09-22T00:54:23.800Z,61.60
2018-09-22T00:56:51.412Z,64.50
2018-09-22T00:59:18.927Z,63.90
2018-09-22T01:01:46.447Z,59.10
2018-09-22T01:04:13.917Z,66.40
2018-09-22T01:06:41.436Z,56.90
2018-09-22T01:09:09.048Z,52.70
2018-09-22T01:14:04.560Z,52.60
2018-09-22T01:16:32.125Z,55.40
2018-09-22T01:18:59.592Z,54.50
2018-09-22T01:21:27.148Z,59.70
2018-09-22T01:26:22.072Z,52.90
2018-09-22T01:28:49.684Z,48.60
2018-09-22T01:31:17.197Z,48.90
2018-09-22T01:33:44.687Z,58.10
2018-09-22T01:36:12.202Z,54.10
2018-09-22T01:38:39.804Z,50.10
2018-09-22T01:41:07.343Z,56.30
2018-09-22T01:43:34.831Z,56.20
2018-09-22T01:46:02.406Z,49.20
2018-09-22T01:48:29.884Z,49.00
2018-09-22T01:50:57.353Z,49.90
2018-09-22T01:53:24.860Z,49.40
2018-09-22T01:55:52.341Z,49.30
2018-09-22T01:58:19.824Z,49.90
2018-09-22T02:00:47.363Z,49.90
2018-09-22T02:03:14.889Z,49.90
2018-09-22T02:05:42.371Z,49.80
2018-09-22T02:08:09.890Z,59.90
2018-09-22T02:10:37.422Z,50.80
2018-09-22T02:13:04.982Z,58.10
2018-09-22T02:20:27.328Z,61.00
2018-09-22T02:25:22.274Z,61.10
2018-09-22T02:27:49.820Z,51.80
2018-09-22T02:30:17.312Z,63.00
2018-09-22T02:35:12.183Z,61.60
2018-09-22T02:42:34.533Z,55.30
2018-09-22T02:45:02.087Z,50.40
2018-09-22T02:47:29.597Z,50.40
2018-09-22T02:49:57.180Z,50.60
2018-09-22T02:52:24.699Z,50.50
2018-09-22T02:57:19.797Z,51.00
2018-09-22T02:59:47.319Z,61.40
2018-09-22T03:02:14.805Z,54.80
2018-09-22T03:09:37.340Z,50.30
2018-09-22T03:12:04.846Z,50.90
2018-09-22T03:14:32.317Z,51.30
2018-09-22T03:16:59.821Z,56.10
2018-09-22T03:19:27.302Z,54.60
2018-09-22T03:21:54.804Z,50.40
2018-09-22T03:24:22.310Z,55.20
2018-09-22T03:26:49.816Z,55.80
2018-09-22T03:29:17.277Z,57.10
2018-09-22T03:31:44.788Z,56.50
2018-09-22T03:36:39.752Z,65.50
2018-09-22T03:39:08.897Z,58.20
2018-09-22T03:41:36.400Z,50.70
2018-09-22T03:46:31.391Z,59.70
2018-09-22T03:51:26.352Z,51.10
2018-09-22T03:53:53.942Z,51.40
2018-09-22T03:56:21.452Z,51.50
2018-09-22T03:58:49.016Z,51.90
2018-09-22T04:01:16.516Z,53.60
2018-09-22T04:06:11.471Z,58.90
2018-09-22T04:08:38.980Z,57.30
2018-09-22T04:11:06.503Z,58.60
2018-09-22T04:13:33.951Z,59.30
2018-09-22T04:16:01.437Z,64.00
2018-09-22T04:20:56.471Z,58.20
2018-09-22T04:25:51.321Z,60.00
2018-09-22T04:28:18.893Z,58.90
2018-09-22T04:30:46.402Z,55.40
2018-09-22T04:33:13.953Z,58.10
2018-09-22T04:35:41.460Z,53.50
2018-09-22T04:38:08.957Z,51.70
2018-09-22T04:40:36.436Z,51.40
2018-09-22T04:43:04.000Z,51.80
2018-09-22T04:45:31.726Z,52.50
2018-09-22T04:47:59.241Z,52.50
2018-09-22T04:50:26.847Z,52.10
2018-09-22T04:52:54.299Z,52.70
2018-09-22T04:55:21.843Z,75.50
2018-09-22T05:00:17.456Z,59.30
2018-09-22T05:02:44.960Z,64.80
2018-09-22T05:05:12.512Z,68.80
2018-09-22T05:07:40.020Z,67.00
2018-09-22T05:12:34.992Z,61.20
2018-09-22T05:15:02.655Z,63.60
2018-09-22T05:17:30.180Z,67.80
2018-09-22T05:19:57.656Z,63.00
2018-09-22T05:22:25.140Z,66.10
2018-09-22T05:24:52.656Z,71.50
2018-09-22T05:27:20.131Z,66.00
2018-09-22T05:29:47.612Z,62.90
2018-09-22T05:37:10.228Z,61.00
2018-09-22T05:39:37.723Z,66.40
2018-09-22T05:42:05.305Z,73.10
2018-09-22T05:44:32.718Z,67.80
2018-09-22T05:47:00.228Z,67.70
2018-09-22T05:54:22.616Z,69.80
2018-09-22T05:56:50.111Z,67.50
2018-09-22T05:59:17.680Z,72.70
2018-09-22T06:01:45.159Z,74.30
2018-09-22T06:04:17.492Z,71.60
2018-09-22T06:06:45.093Z,74.20
2018-09-22T06:09:12.758Z,67.60
2018-09-22T06:11:40.269Z,68.00
2018-09-22T06:14:07.778Z,73.30
2018-09-22T06:16:35.331Z,56.60
2018-09-22T06:19:02.856Z,67.40
2018-09-22T06:21:30.300Z,67.50
2018-09-22T06:26:25.227Z,67.30
2018-09-22T06:28:52.867Z,55.90
2018-09-22T06:31:20.354Z,55.80
2018-09-22T06:33:47.862Z,67.90
2018-09-22T06:36:15.303Z,70.00
2018-09-22T06:41:10.433Z,69.60
2018-09-22T06:43:37.947Z,70.40
2018-09-22T06:46:05.535Z,56.40
2018-09-22T06:48:32.996Z,56.20
2018-09-22T06:51:00.482Z,74.30
2018-09-22T06:53:27.996Z,56.20
2018-09-22T06:55:55.493Z,67.30
2018-09-22T06:58:23.011Z,70.10
2018-09-22T07:00:50.506Z,75.80
2018-09-22T07:03:18.253Z,56.30
2018-09-22T07:05:45.781Z,56.30
2018-09-22T07:08:13.264Z,56.20
2018-09-22T07:10:40.793Z,56.50
2018-09-22T07:13:08.329Z,55.90
2018-09-22T07:23:03.848Z,75.40
2018-09-22T07:25:31.370Z,55.80
2018-09-22T07:27:58.870Z,63.30
2018-09-22T07:32:54.594Z,67.30
2018-09-22T07:35:22.193Z,64.80
2018-09-22T07:37:49.743Z,55.00
2018-09-22T07:40:17.370Z,69.30
2018-09-22T07:42:44.926Z,66.10
2018-09-22T07:45:12.474Z,63.00
2018-09-22T07:50:07.690Z,53.40
2018-09-22T07:55:02.849Z,53.10
2018-09-22T07:59:58.226Z,61.20
2018-09-22T08:02:25.953Z,52.70
2018-09-22T08:04:53.684Z,56.30
2018-09-22T08:07:21.664Z,52.20
2018-09-22T08:09:49.207Z,52.10
2018-09-22T08:19:39.856Z,54.30
2018-09-22T08:22:07.489Z,54.40
2018-09-22T08:24:35.184Z,50.60
2018-09-22T08:27:02.809Z,52.70
2018-09-22T08:29:30.732Z,50.10
2018-09-22T08:31:58.320Z,49.80
2018-09-22T08:34:26.265Z,49.20
2018-09-22T08:36:53.947Z,49.60
2018-09-22T08:39:21.814Z,49.70
2018-09-22T08:41:49.387Z,49.40
2018-09-22T08:44:16.992Z,66.80
2018-09-22T08:51:39.454Z,49.30
2018-09-22T08:54:07.021Z,53.90
2018-09-22T08:56:34.509Z,52.30
2018-09-22T08:59:02.064Z,47.00
2018-09-22T09:01:29.653Z,47.30
2018-09-22T09:06:24.626Z,47.60
2018-09-22T09:08:52.167Z,48.30
2018-09-22T09:11:19.702Z,49.10
2018-09-22T09:13:47.419Z,48.50
2018-09-22T09:16:15.109Z,48.40
2018-09-22T09:18:42.692Z,48.60
2018-09-22T09:21:10.224Z,48.70
2018-09-22T09:23:37.823Z,48.90
2018-09-22T09:26:05.360Z,48.40
2018-09-22T09:31:00.337Z,47.50
2018-09-22T09:33:28.064Z,46.70
2018-09-22T09:35:55.603Z,46.40
2018-09-22T09:38:24.237Z,47.30
2018-09-22T09:43:19.254Z,46.60
2018-09-22T09:45:47.075Z,47.60
2018-09-22T09:48:14.652Z,46.80
2018-09-22T09:50:42.241Z,47.50
2018-09-22T09:53:09.765Z,46.30
2018-09-22T09:55:37.335Z,45.80
2018-09-22T09:58:06.186Z,46.50
2018-09-22T10:00:39.578Z,44.70
2018-09-22T10:03:07.119Z,44.80
2018-09-22T10:05:34.865Z,44.80
2018-09-22T10:08:02.442Z,44.60
2018-09-22T10:10:29.932Z,45.20
2018-09-22T10:12:57.567Z,45.00
2018-09-22T10:15:25.052Z,45.90
2018-09-22T10:17:52.682Z,45.20
2018-09-22T10:20:20.322Z,45.60
2018-09-22T10:22:48.943Z,45.10
2018-09-22T10:25:16.520Z,44.70
2018-09-22T10:27:44.059Z,44.60
2018-09-22T10:30:11.702Z,41.40
2018-09-22T10:32:39.188Z,42.20
2018-09-22T10:35:08.093Z,39.80
2018-09-22T10:37:35.622Z,38.40
2018-09-22T10:40:03.828Z,37.30
2018-09-22T10:42:31.381Z,37.20
2018-09-22T10:44:58.917Z,36.20
2018-09-22T10:47:26.623Z,34.70
2018-09-22T10:49:54.204Z,34.50
2018-09-22T10:52:21.723Z,32.60
2018-09-22T10:54:49.435Z,32.80
2018-09-22T10:57:17.041Z,33.90
2018-09-22T10:59:44.576Z,32.50
2018-09-22T11:02:12.367Z,32.60
2018-09-22T11:04:40.092Z,32.90
2018-09-22T11:07:07.755Z,32.10
2018-09-22T11:09:35.280Z,30.90
2018-09-22T11:12:03.083Z,31.50
2018-09-22T11:14:30.739Z,30.60
2018-09-22T11:16:58.333Z,30.90
2018-09-22T11:21:53.979Z,31.80
2018-09-22T11:24:21.524Z,32.20
2018-09-22T11:26:49.103Z,32.70
2018-09-22T11:29:16.654Z,33.10
2018-09-22T11:31:46.194Z,34.40
2018-09-22T11:34:13.721Z,35.00
2018-09-22T11:36:44.839Z,35.80
2018-09-22T11:39:12.693Z,35.60
2018-09-22T11:41:40.536Z,36.70
2018-09-22T11:44:08.244Z,37.10
2018-09-22T11:46:35.936Z,37.20
2018-09-22T11:49:03.594Z,37.40
2018-09-22T11:51:31.343Z,38.30
2018-09-22T11:53:58.947Z,38.50
2018-09-22T11:56:26.551Z,37.90
2018-09-22T11:58:54.168Z,37.90
2018-09-22T12:01:21.717Z,38.30
2018-09-22T12:03:49.296Z,38.10
2018-09-22T12:06:17.054Z,38.00
2018-09-22T12:11:12.340Z,39.40
2018-09-22T12:13:39.851Z,39.90
2018-09-22T12:16:07.940Z,41.10
2018-09-22T12:18:35.502Z,39.90
2018-09-22T12:21:03.018Z,40.00
2018-09-22T12:28:26.127Z,40.30
2018-09-22T12:30:53.748Z,41.10
2018-09-22T12:33:21.665Z,45.20
2018-09-22T12:38:16.672Z,50.20
2018-09-22T12:40:44.305Z,48.60
2018-09-22T12:43:11.896Z,45.90
2018-09-22T12:45:39.406Z,40.30
2018-09-22T12:48:06.966Z,44.20
2018-09-22T12:50:34.457Z,49.10
2018-09-22T12:53:02.120Z,39.40
2018-09-22T12:55:29.721Z,45.60
2018-09-22T12:57:57.293Z,48.10
2018-09-22T13:00:24.845Z,44.00
2018-09-22T13:05:20.874Z,39.00
2018-09-22T13:07:48.835Z,39.90
2018-09-22T13:10:16.395Z,38.50
2018-09-22T13:15:11.697Z,37.60
2018-09-22T13:20:07.286Z,37.10
2018-09-22T13:22:35.038Z,37.10
2018-09-22T13:25:02.578Z,37.10
2018-09-22T13:27:30.342Z,37.00
2018-09-22T13:29:57.922Z,37.00
2018-09-22T13:32:25.503Z,37.00
2018-09-22T13:34:53.071Z,36.90
2018-09-22T13:37:20.682Z,36.90
2018-09-22T13:42:15.620Z,43.80
2018-09-22T13:44:43.215Z,36.60
2018-09-22T13:49:38.275Z,37.10
2018-09-22T13:52:06.026Z,37.40
2018-09-22T13:54:33.629Z,37.90
2018-09-22T13:59:29.059Z,38.50
2018-09-22T14:01:56.667Z,39.90
2018-09-22T14:06:51.872Z,39.00
2018-09-22T14:09:19.402Z,39.30
2018-09-22T14:11:46.927Z,38.10
2018-09-22T14:16:42.141Z,38.40
2018-09-22T14:19:09.853Z,38.70
2018-09-22T14:24:04.899Z,37.60
2018-09-22T14:26:32.481Z,38.10
2018-09-22T14:29:00.110Z,36.70
2018-09-22T14:31:27.792Z,36.40
2018-09-22T14:33:55.277Z,37.20
2018-09-22T14:36:22.908Z,36.30
2018-09-22T14:41:18.242Z,36.30
2018-09-22T14:43:45.834Z,36.30
2018-09-22T14:46:13.429Z,46.30
2018-09-22T14:48:40.958Z,36.20
2018-09-22T14:53:36.182Z,37.00
2018-09-22T14:56:03.825Z,37.80
2018-09-22T15:03:26.348Z,36.50
2018-09-22T15:08:21.691Z,37.30
2018-09-22T15:10:49.368Z,36.90
2018-09-22T15:15:44.506Z,38.00
2018-09-22T15:18:12.165Z,37.30
2018-09-22T15:20:39.739Z,37.70
2018-09-22T15:23:07.513Z,38.20
2018-09-22T15:25:35.181Z,38.10
2018-09-22T15:28:02.869Z,38.40
2018-09-22T15:32:58.011Z,39.30
2018-09-22T15:35:25.549Z,39.00
2018-09-22T15:37:53.097Z,39.40
2018-09-22T15:40:20.624Z,36.90
2018-09-22T15:42:48.447Z,37.10
2018-09-22T15:47:43.414Z,38.80
2018-09-22T15:50:10.893Z,39.60
2018-09-22T15:52:38.573Z,39.60
2018-09-22T15:55:06.238Z,40.80
2018-09-22T15:57:33.765Z,40.50
2018-09-22T16:00:01.369Z,40.80
2018-09-22T16:02:28.991Z,40.90
2018-09-22T16:04:56.523Z,40.70
2018-09-22T16:07:24.237Z,40.10
2018-09-22T16:09:51.745Z,40.40
2018-09-22T16:14:48.469Z,40.90
2018-09-22T16:17:16.349Z,41.20
2018-09-22T16:19:43.936Z,40.70
2018-09-22T16:22:11.543Z,41.20
2018-09-22T16:24:39.239Z,41.30
2018-09-22T16:27:06.976Z,41.50
2018-09-22T16:29:34.600Z,42.00
2018-09-22T16:32:02.107Z,42.10
2018-09-22T16:34:29.684Z,42.90
2018-09-22T16:39:24.712Z,43.20
2018-09-22T16:44:20.204Z,44.00
2018-09-22T16:46:47.860Z,44.90
2018-09-22T16:51:42.897Z,45.60
2018-09-22T16:54:10.469Z,46.40
2018-09-22T16:56:37.970Z,47.40
2018-09-22T16:59:05.555Z,47.30
2018-09-22T17:01:33.113Z,47.30
2018-09-22T17:04:00.723Z,48.20
2018-09-22T17:06:28.228Z,49.50
2018-09-22T17:08:55.790Z,49.60
2018-09-22T17:11:23.451Z,51.40
2018-09-22T17:13:51.111Z,50.40
2018-09-22T17:16:18.921Z,50.90
2018-09-22T17:21:14.064Z,51.00
2018-09-22T17:23:41.836Z,52.30
2018-09-22T17:28:36.928Z,53.60
2018-09-22T17:31:04.461Z,54.70
2018-09-22T17:33:32.033Z,54.60
2018-09-22T17:35:59.674Z,56.00
2018-09-22T17:38:27.428Z,55.90
2018-09-22T17:40:55.612Z,56.70
2018-09-22T17:43:23.236Z,58.90
2018-09-22T17:45:50.719Z,59.80
2018-09-22T17:48:18.251Z,59.50
2018-09-22T17:50:45.807Z,58.90
2018-09-22T17:53:13.375Z,60.10
2018-09-22T17:55:40.942Z,59.00
2018-09-22T17:58:08.495Z,60.20
2018-09-22T18:00:36.052Z,60.70
2018-09-22T18:03:03.585Z,61.00
2018-09-22T18:05:31.103Z,60.90
2018-09-22T18:07:58.642Z,60.50
2018-09-22T18:10:26.317Z,63.20
2018-09-22T18:12:54.039Z,62.40
2018-09-22T18:15:21.632Z,63.00
2018-09-22T18:17:49.293Z,62.70
2018-09-22T18:20:16.836Z,62.80
2018-09-22T18:22:44.375Z,62.30
2018-09-22T18:25:12.021Z,62.90
2018-09-22T18:27:39.553Z,62.40
2018-09-22T18:30:07.133Z,62.30
2018-09-22T18:32:34.725Z,62.40
2018-09-22T18:35:02.312Z,63.00
2018-09-22T18:37:29.852Z,63.70
2018-09-22T18:42:24.886Z,63.30
2018-09-22T18:44:52.419Z,63.30
2018-09-22T18:49:47.475Z,62.20
2018-09-22T18:54:42.639Z,61.90
2018-09-22T18:57:10.205Z,62.30
2018-09-22T18:59:37.895Z,62.70
2018-09-22T19:04:32.968Z,62.80
2018-09-22T19:07:00.481Z,62.30
2018-09-22T19:09:28.034Z,63.80
2018-09-22T19:11:55.601Z,63.30
2018-09-22T19:14:27.172Z,64.30
2018-09-22T19:16:59.082Z,64.80
2018-09-22T19:19:33.192Z,64.10
2018-09-22T19:22:05.169Z,64.40
2018-09-22T19:24:36.532Z,64.50
2018-09-22T19:27:08.593Z,63.50
2018-09-22T19:29:47.161Z,64.30
2018-09-22T19:32:33.691Z,63.30
2018-09-22T19:35:05.864Z,63.20
2018-09-22T19:37:38.176Z,63.60
2018-09-22T19:40:13.087Z,64.10
2018-09-22T19:42:51.150Z,63.80
2018-09-22T19:45:29.552Z,64.10
2018-09-22T19:48:00.489Z,64.00
2018-09-22T19:50:34.158Z,64.10
2018-09-22T19:53:01.810Z,64.60
2018-09-22T19:55:29.393Z,64.00
2018-09-22T19:57:57.028Z,64.30
2018-09-22T20:00:24.506Z,63.70
2018-09-22T20:02:52.055Z,64.10
2018-09-22T20:05:19.633Z,64.50
2018-09-22T20:07:47.149Z,65.00
2018-09-22T20:10:14.762Z,65.80
2018-09-22T20:12:42.391Z,74.50
2018-09-22T20:15:09.959Z,70.20
2018-09-22T20:17:37.586Z,66.20
2018-09-22T20:20:05.678Z,70.30
2018-09-22T20:22:33.219Z,67.70
2018-09-22T20:27:28.317Z,71.00
2018-09-22T20:29:55.859Z,69.80
2018-09-22T20:32:23.484Z,71.70
2018-09-22T20:34:51.070Z,65.30
2018-09-22T20:37:18.614Z,67.80
2018-09-22T20:39:46.255Z,66.30
2018-09-22T20:42:13.849Z,66.80
2018-09-22T20:44:41.441Z,69.30
2018-09-22T20:47:09.104Z,67.30
2018-09-22T20:52:04.074Z,66.80
2018-09-22T20:56:59.038Z,67.50
2018-09-22T20:59:26.586Z,68.10
2018-09-22T21:01:54.260Z,67.30
2018-09-22T21:06:49.307Z,69.20
2018-09-22T21:09:16.872Z,67.00
2018-09-22T21:14:11.853Z,69.00
2018-09-22T21:16:39.437Z,68.20
2018-09-22T21:19:06.977Z,68.30
2018-09-22T21:22:58.992Z,67.30
2018-09-22T21:25:26.628Z,66.90
2018-09-22T21:30:21.802Z,75.90
2018-09-22T21:37:45.025Z,71.80
2018-09-22T21:40:12.642Z,71.60
2018-09-22T21:42:40.217Z,73.80
2018-09-22T21:45:07.762Z,66.80
2018-09-22T21:47:35.435Z,70.10
2018-09-22T21:50:03.268Z,68.50
2018-09-22T21:52:30.762Z,68.80
2018-09-22T22:04:48.321Z,69.40
2018-09-22T22:07:15.894Z,69.30
2018-09-22T22:09:43.489Z,68.30
2018-09-22T22:12:11.159Z,68.30
2018-09-22T22:14:38.689Z,68.70
2018-09-22T22:17:06.272Z,69.20
2018-09-22T22:22:01.378Z,68.90
2018-09-22T22:24:28.917Z,68.60
2018-09-22T22:26:56.821Z,69.20
2018-09-22T22:29:24.389Z,68.80
2018-09-22T22:31:51.898Z,68.80
2018-09-22T22:34:19.571Z,75.90
2018-09-22T22:36:47.077Z,67.50
2018-09-22T22:39:14.558Z,67.00
2018-09-22T22:41:42.092Z,66.90
2018-09-22T22:44:09.815Z,68.00
2018-09-22T22:46:37.337Z,67.00
2018-09-22T22:49:05.308Z,67.20
2018-09-22T22:51:32.910Z,67.10
2018-09-22T22:54:00.336Z,67.00
2018-09-22T22:56:27.824Z,67.30
2018-09-22T22:58:55.384Z,66.10
2018-09-22T23:01:22.940Z,66.10
2018-09-22T23:03:50.525Z,69.90
2018-09-22T23:06:19.090Z,67.00
2018-09-22T23:08:46.701Z,67.10
2018-09-22T23:11:14.259Z,66.60
2018-09-22T23:13:42.103Z,67.30
2018-09-22T23:16:10.020Z,67.80
2018-09-22T23:18:37.693Z,68.30
2018-09-22T23:21:05.561Z,68.30
2018-09-22T23:23:33.022Z,67.60
2018-09-22T23:26:00.712Z,67.30
2018-09-22T23:28:28.977Z,67.50
2018-09-22T23:30:56.933Z,68.10
2018-09-22T23:33:24.711Z,68.10
2018-09-22T23:38:19.932Z,67.60
2018-09-22T23:45:42.856Z,67.60
2018-09-22T23:50:37.891Z,68.40
2018-09-22T23:55:32.936Z,70.30
2018-09-22T23:58:00.518Z,69.80
